Time;durP1;ratioP1;P1;durP2;ratioP2;P2;SDS_P1;SDS_P2;PMS_P1;PMS_P2;Temp;Humidity;BMP_temperature;BMP_pressure;BME280_temperature;BME280_humidity;BME280_pressure;Samples;Min_cycle;Max_cycle;Signal;HPM_P1;HPM_P2
2022/06/29 00:02:01;;;;;;;0.93;0.30;;;20.00;84.20;;;;;;10183841;29;20393;-64
2022/06/29 00:07:03;;;;;;;0.55;0.22;;;20.00;84.50;;;;;;10189980;29;20435;-64
2022/06/29 00:12:05;;;;;;;0.35;0.20;;;20.00;85.60;;;;;;10187316;29;20062;-64
2022/06/29 00:17:08;;;;;;;3.90;0.40;;;19.90;85.70;;;;;;10187773;29;20058;-65
2022/06/29 00:22:10;;;;;;;1.23;0.25;;;19.90;87.30;;;;;;10189102;29;20119;-64
2022/06/29 00:27:12;;;;;;;1.95;0.40;;;19.90;87.20;;;;;;10186902;29;20115;-64
2022/06/29 00:32:14;;;;;;;7.80;0.35;;;19.90;88.00;;;;;;10187163;29;20051;-64
2022/06/29 00:37:16;;;;;;;0.55;0.30;;;19.90;89.40;;;;;;10164758;29;20059;-65
2022/06/29 00:42:18;;;;;;;0.65;0.20;;;19.70;89.80;;;;;;10188206;29;20052;-65
2022/06/29 00:47:19;;;;;;;0.60;0.30;;;19.60;89.80;;;;;;10186412;29;20639;-65
2022/06/29 00:52:25;;;;;;;1.85;0.20;;;19.60;90.50;;;;;;10188786;29;20111;-65
2022/06/29 00:57:28;;;;;;;1.08;0.28;;;19.50;90.80;;;;;;10187471;29;20127;-64
2022/06/29 01:02:34;;;;;;;1.30;0.30;;;19.50;90.80;;;;;;10186840;29;20067;-64
2022/06/29 01:07:36;;;;;;;0.50;0.30;;;19.40;91.30;;;;;;10190166;29;20070;-65
2022/06/29 01:12:38;;;;;;;0.60;0.30;;;19.40;91.70;;;;;;10175728;29;20052;-64
2022/06/29 01:17:39;;;;;;;0.50;0.20;;;19.30;92.20;;;;;;10192001;29;20055;-64
2022/06/29 01:22:41;;;;;;;0.25;0.22;;;19.30;92.60;;;;;;10196098;29;20067;-65
2022/06/29 01:27:43;;;;;;;2.40;0.40;;;19.20;93.20;;;;;;10193879;29;20736;-64
2022/06/29 01:32:45;;;;;;;0.70;0.30;;;19.10;93.30;;;;;;10179231;29;20118;-64
2022/06/29 01:37:46;;;;;;;1.85;0.40;;;19.10;93.60;;;;;;10194073;29;20066;-66
2022/06/29 01:42:48;;;;;;;0.43;0.30;;;19.00;94.10;;;;;;10194309;29;20075;-64
2022/06/29 01:47:49;;;;;;;1.08;0.40;;;19.00;94.50;;;;;;10192453;29;20054;-64
2022/06/29 01:52:51;;;;;;;0.93;0.43;;;18.90;95.00;;;;;;10193495;29;20138;-64
2022/06/29 01:57:53;;;;;;;6.18;1.10;;;18.90;95.40;;;;;;10172484;29;20047;-64
2022/06/29 02:02:54;;;;;;;0.88;0.43;;;18.80;96.10;;;;;;10191333;29;20064;-64
2022/06/29 02:07:56;;;;;;;1.85;0.50;;;18.80;96.40;;;;;;10193033;29;20047;-65
2022/06/29 02:12:58;;;;;;;0.93;0.40;;;18.80;96.00;;;;;;10193307;29;20074;-65
2022/06/29 02:17:59;;;;;;;1.05;0.40;;;18.80;95.80;;;;;;10190979;29;20055;-65
2022/06/29 02:23:01;;;;;;;0.70;0.40;;;18.80;96.30;;;;;;10190093;29;20106;-65
2022/06/29 02:28:03;;;;;;;1.55;0.30;;;18.80;96.60;;;;;;10191308;29;20048;-63
2022/06/29 02:38:25;;;;;;;1.65;0.30;;;18.80;97.40;;;;;;10185425;29;20095;-62
2022/06/29 02:43:27;;;;;;;1.23;0.30;;;18.80;98.00;;;;;;10191138;29;20055;-62
2022/06/29 02:48:29;;;;;;;0.20;0.20;;;18.80;97.90;;;;;;10192165;29;20059;-62
2022/06/29 02:53:30;;;;;;;1.50;0.30;;;18.80;98.20;;;;;;10189607;29;20055;-62
2022/06/29 02:58:33;;;;;;;0.55;0.28;;;18.70;98.00;;;;;;10190591;29;20511;-62
2022/06/29 03:03:35;;;;;;;1.42;0.30;;;18.70;98.30;;;;;;10191409;29;20466;-62
2022/06/29 03:08:37;;;;;;;2.15;0.30;;;18.70;98.20;;;;;;10190332;29;20115;-62
2022/06/29 03:13:38;;;;;;;1.00;0.30;;;18.70;98.40;;;;;;10191060;29;20055;-62
2022/06/29 03:18:40;;;;;;;0.30;0.20;;;18.70;98.50;;;;;;10189217;29;20059;-65
2022/06/29 03:23:43;;;;;;;3.10;0.30;;;18.70;98.60;;;;;;10187277;29;20119;-65
2022/06/29 03:28:44;;;;;;;3.17;0.20;;;18.70;98.50;;;;;;10188640;29;20063;-64
2022/06/29 03:33:46;;;;;;;3.65;0.30;;;18.80;98.50;;;;;;10189676;29;20060;-65
2022/06/29 03:38:48;;;;;;;0.45;0.30;;;18.90;98.80;;;;;;10171885;29;20071;-65
2022/06/29 03:43:49;;;;;;;0.95;0.40;;;18.90;99.00;;;;;;10172807;29;20498;-65
2022/06/29 03:48:51;;;;;;;0.68;0.30;;;18.90;99.00;;;;;;10190099;29;20518;-65
2022/06/29 03:53:53;;;;;;;0.47;0.30;;;18.90;99.10;;;;;;10189419;29;20055;-65
2022/06/29 03:58:54;;;;;;;0.50;0.30;;;18.90;99.20;;;;;;10188323;29;20051;-67
2022/06/29 04:03:56;;;;;;;2.20;0.40;;;19.00;99.70;;;;;;10188542;29;20509;-67
2022/06/29 04:08:58;;;;;;;2.05;0.40;;;19.00;99.90;;;;;;10188163;29;20115;-67
2022/06/29 04:14:00;;;;;;;1.40;0.30;;;19.10;99.90;;;;;;10188105;29;20114;-67
2022/06/29 04:19:01;;;;;;;0.70;0.40;;;19.10;99.90;;;;;;10187748;29;20110;-67
2022/06/29 04:24:03;;;;;;;0.73;0.40;;;19.20;99.90;;;;;;10186836;29;20058;-67
2022/06/29 04:29:05;;;;;;;1.13;0.40;;;19.20;99.90;;;;;;10186547;29;20052;-67
2022/06/29 04:34:07;;;;;;;2.35;0.45;;;19.20;99.90;;;;;;10188728;29;20081;-67
2022/06/29 04:39:08;;;;;;;1.20;0.57;;;19.20;99.90;;;;;;10187606;29;20499;-68
2022/06/29 04:44:10;;;;;;;1.90;0.68;;;19.20;99.90;;;;;;10180615;29;20056;-68
2022/06/29 04:49:12;;;;;;;2.88;0.50;;;19.30;99.90;;;;;;10186865;29;20063;-68
2022/06/29 04:54:13;;;;;;;0.82;0.40;;;19.30;99.90;;;;;;10187557;29;20110;-68
2022/06/29 04:59:15;;;;;;;1.25;0.35;;;19.30;99.90;;;;;;10184440;29;20115;-68
2022/06/29 05:04:17;;;;;;;0.80;0.43;;;19.40;99.90;;;;;;10187019;29;20110;-68
2022/06/29 05:09:19;;;;;;;1.50;0.40;;;19.50;99.90;;;;;;10190830;29;20511;-69
2022/06/29 05:14:20;;;;;;;1.00;0.40;;;19.40;99.90;;;;;;10185489;29;20107;-69
2022/06/29 05:19:22;;;;;;;0.40;0.40;;;19.30;99.90;;;;;;10184026;29;20147;-69
2022/06/29 05:24:24;;;;;;;1.90;0.40;;;19.30;99.90;;;;;;10187865;29;20122;-69
2022/06/29 05:29:25;;;;;;;2.83;0.40;;;19.30;99.90;;;;;;10192757;29;20062;-68
2022/06/29 05:34:27;;;;;;;0.40;0.30;;;19.40;99.90;;;;;;10184462;29;20068;-68
2022/06/29 05:39:29;;;;;;;1.17;0.40;;;19.40;99.90;;;;;;10214472;23;20052;-88
2022/06/29 05:44:31;;;;;;;2.60;0.38;;;19.40;99.90;;;;;;10164060;29;20070;-88
2022/06/29 05:49:33;;;;;;;0.80;0.50;;;19.50;99.90;;;;;;10135174;29;20063;-88
2022/06/29 05:54:35;;;;;;;2.30;0.40;;;19.60;99.90;;;;;;10151438;29;20056;-87
2022/06/29 05:59:37;;;;;;;4.38;0.50;;;19.70;99.90;;;;;;10154837;29;20061;-87
2022/06/29 06:04:39;;;;;;;2.90;0.50;;;19.80;99.90;;;;;;10138196;29;20068;-87
2022/06/29 06:09:41;;;;;;;4.03;0.70;;;19.90;99.90;;;;;;10168386;29;20052;-88
2022/06/29 06:14:44;;;;;;;1.25;0.50;;;20.10;99.90;;;;;;10132011;29;20053;-92
2022/06/29 06:19:46;;;;;;;0.63;0.32;;;20.30;99.90;;;;;;10136083;29;20422;-85
2022/06/29 06:24:48;;;;;;;2.03;0.50;;;20.80;99.90;;;;;;10136010;29;20064;-84
2022/06/29 06:29:50;;;;;;;2.10;0.50;;;20.70;99.30;;;;;;10137237;29;20052;-87
2022/06/29 06:34:52;;;;;;;2.42;0.65;;;20.90;99.30;;;;;;10167135;29;20120;-86
2022/06/29 06:45:14;;;;;;;1.83;0.80;;;21.30;98.10;;;;;;10156871;29;20061;-87
2022/06/29 06:50:16;;;;;;;1.13;0.60;;;21.60;98.30;;;;;;10153859;29;20068;-87
2022/06/29 06:55:18;;;;;;;2.50;0.65;;;21.70;97.40;;;;;;10147611;29;20064;-86
2022/06/29 07:00:21;;;;;;;2.17;0.80;;;21.90;97.30;;;;;;10134414;29;20103;-86
2022/06/29 07:05:23;;;;;;;4.55;1.02;;;22.00;96.70;;;;;;10149384;29;20060;-86
2022/06/29 07:10:25;;;;;;;0.93;0.70;;;22.10;96.30;;;;;;10133361;29;20064;-86
2022/06/29 07:15:27;;;;;;;1.20;0.80;;;22.30;95.30;;;;;;10147118;29;20392;-86
2022/06/29 07:20:30;;;;;;;3.80;0.90;;;22.40;95.40;;;;;;10143200;29;20060;-86
2022/06/29 07:25:32;;;;;;;4.13;1.10;;;22.40;94.80;;;;;;10143119;29;20135;-85
2022/06/29 07:30:34;;;;;;;3.05;0.85;;;22.60;95.20;;;;;;10152817;29;20055;-86
2022/06/29 07:35:37;;;;;;;4.55;1.00;;;22.50;94.90;;;;;;10160064;29;20422;-86
2022/06/29 07:40:38;;;;;;;1.98;1.00;;;22.60;95.40;;;;;;10145739;29;20487;-84
2022/06/29 07:45:40;;;;;;;3.38;1.02;;;22.70;95.40;;;;;;10137866;29;20060;-84
2022/06/29 07:50:42;;;;;;;3.85;1.98;;;22.80;95.40;;;;;;10151630;29;20056;-86
2022/06/29 07:55:44;;;;;;;4.00;1.90;;;23.00;95.80;;;;;;10134741;29;20224;-86
2022/06/29 08:00:47;;;;;;;4.45;1.73;;;23.20;95.60;;;;;;10126357;29;20060;-87
2022/06/29 08:05:49;;;;;;;1.83;1.40;;;23.20;95.80;;;;;;10140085;29;20059;-87
2022/06/29 08:10:51;;;;;;;2.50;1.88;;;23.40;95.50;;;;;;10125314;29;20123;-86
2022/06/29 08:15:53;;;;;;;3.42;1.65;;;23.30;95.40;;;;;;10129971;29;20058;-85
2022/06/29 08:20:55;;;;;;;2.50;2.13;;;23.60;96.00;;;;;;10139701;29;20056;-87
2022/06/29 08:25:57;;;;;;;4.15;1.63;;;23.90;95.90;;;;;;10134798;29;20044;-86
2022/06/29 08:31:19;;;;;;;3.78;1.80;;;24.10;95.30;;;;;;10123603;29;20052;-87
2022/06/29 08:36:22;;;;;;;4.38;1.88;;;24.40;95.20;;;;;;10153102;29;20075;-87
2022/06/29 08:41:43;;;;;;;3.97;1.92;;;24.80;94.70;;;;;;10158361;29;20083;-86
2022/06/29 08:46:45;;;;;;;2.00;1.67;;;25.10;93.90;;;;;;10148183;29;20044;-87
2022/06/29 08:51:48;;;;;;;2.22;1.67;;;25.40;94.10;;;;;;10157135;29;20056;-87
2022/06/29 08:56:51;;;;;;;2.80;1.73;;;25.50;94.10;;;;;;10162859;29;20072;-87
2022/06/29 09:01:53;;;;;;;3.58;1.67;;;25.60;93.20;;;;;;10142949;29;20068;-84
2022/06/29 09:06:56;;;;;;;4.93;1.50;;;25.70;92.90;;;;;;10124605;29;20068;-88
2022/06/29 09:11:58;;;;;;;2.55;2.08;;;25.80;93.80;;;;;;10126194;29;20044;-88
2022/06/29 09:17:04;;;;;;;3.38;2.20;;;25.70;93.60;;;;;;10136247;29;20096;-87
2022/06/29 09:22:06;;;;;;;;;;;25.70;93.40;;;;;;10122201;29;20056;-87
2022/06/29 09:27:09;;;;;;;3.85;1.90;;;26.00;93.90;;;;;;10158264;29;19963;-87
2022/06/29 09:32:14;;;;;;;2.83;2.42;;;26.30;93.30;;;;;;10169727;29;20036;-87
2022/06/29 09:37:20;;;;;;;2.60;1.80;;;26.10;92.50;;;;;;10151559;29;20056;-87
2022/06/29 09:42:27;;;;;;;4.05;1.90;;;26.40;92.40;;;;;;10124825;29;20064;-87
2022/06/29 09:47:29;;;;;;;6.28;2.38;;;26.80;93.30;;;;;;10145724;29;20089;-85
2022/06/29 09:52:32;;;;;;;3.30;2.42;;;26.80;93.80;;;;;;10134771;29;20067;-86
2022/06/29 09:57:36;;;;;;;4.47;2.42;;;26.50;92.70;;;;;;10163579;29;20051;-85
2022/06/29 10:02:45;;;;;;;4.90;2.30;;;26.60;92.80;;;;;;10147809;29;20051;-85
2022/06/29 10:07:50;;;;;;;8.32;2.85;;;26.70;92.60;;;;;;10145065;29;20067;-85
2022/06/29 10:19:13;;;;;;;2.55;2.30;;;27.00;92.80;;;;;;10141957;29;20044;-86
2022/06/29 10:24:18;;;;;;;4.35;2.05;;;26.80;92.90;;;;;;10159597;29;20058;-85
2022/06/29 10:29:23;;;;;;;2.65;2.38;;;27.10;92.90;;;;;;10140863;29;20057;-86
2022/06/29 10:34:31;;;;;;;4.22;2.38;;;27.40;92.60;;;;;;10129659;29;20139;-86
2022/06/29 10:39:45;;;;;;;4.65;2.50;;;27.20;91.90;;;;;;10107060;29;20057;-86
2022/06/29 10:45:03;;;;;;;4.55;2.65;;;27.10;92.70;;;;;;10147292;29;20063;-87
2022/06/29 10:50:40;;;;;;;2.95;2.47;;;27.70;92.70;;;;;;10144595;29;20051;-89
2022/06/29 10:55:47;;;;;;;6.47;2.47;;;28.10;92.00;;;;;;10135054;29;20044;-88
2022/06/29 11:00:53;;;;;;;2.65;2.30;;;28.20;91.20;;;;;;10139446;29;20051;-92
2022/06/29 11:16:52;;;;;;;5.38;3.10;;;27.60;91.70;;;;;;10132641;29;20077;-91
2022/06/29 11:22:08;;;;;;;3.85;3.10;;;28.10;91.40;;;;;;10028664;29;20051;-92
2022/06/29 11:27:29;;;;;;;4.05;2.58;;;28.10;90.00;;;;;;10126081;29;20056;-91
2022/06/29 11:32:44;;;;;;;4.32;2.58;;;28.50;90.90;;;;;;10133649;29;20052;-91
2022/06/29 11:37:47;;;;;;;;;;;28.80;90.40;;;;;;10139933;29;20268;-92
2022/06/29 11:43:05;;;;;;;2.50;2.30;;;29.30;90.30;;;;;;9925915;29;19931;-93
2022/06/29 11:48:27;;;;;;;4.10;2.58;;;29.60;88.70;;;;;;9974300;29;20060;-92
2022/06/29 11:53:45;;;;;;;4.88;2.78;;;29.60;88.00;;;;;;10024233;29;20072;-92
2022/06/29 11:58:52;;;;;;;5.22;2.47;;;29.70;86.80;;;;;;9938030;29;20056;-92
2022/06/29 12:04:12;;;;;;;16.20;2.95;;;30.00;84.40;;;;;;9879838;29;20052;-92
2022/06/29 12:09:45;;;;;;;4.72;2.90;;;29.60;84.10;;;;;;9741662;29;20058;-92
2022/06/29 12:15:16;;;;;;;4.28;2.83;;;29.30;86.20;;;;;;9815354;29;20053;-91
2022/06/29 12:20:24;;;;;;;6.38;2.63;;;29.30;85.80;;;;;;10036337;29;20061;-90
2022/06/29 12:25:40;;;;;;;3.17;2.83;;;28.90;84.80;;;;;;10092799;29;20089;-91
2022/06/29 12:30:56;;;;;;;4.60;2.47;;;28.80;85.80;;;;;;10011234;29;20273;-91
2022/06/29 12:35:58;;;;;;;4.90;2.50;;;28.80;87.30;;;;;;10064646;29;20057;-88
2022/06/29 12:41:01;;;;;;;4.60;2.97;;;28.90;88.50;;;;;;10140225;29;20083;-87
2022/06/29 12:46:03;;;;;;;4.18;2.63;;;28.90;85.70;;;;;;10135636;29;20056;-88
2022/06/29 12:51:06;;;;;;;5.15;2.63;;;28.90;86.30;;;;;;10128422;29;20051;-87
2022/06/29 12:56:08;;;;;;;3.20;2.50;;;29.20;86.90;;;;;;10134984;29;20060;-87
2022/06/29 13:01:10;;;;;;;2.88;2.67;;;29.60;84.70;;;;;;10137010;29;20048;-88
2022/06/29 13:06:12;;;;;;;3.60;2.50;;;29.30;83.70;;;;;;10143878;29;20141;-88
2022/06/29 13:11:16;;;;;;;4.13;2.92;;;29.20;84.50;;;;;;10116054;29;20044;-88
2022/06/29 13:16:18;;;;;;;5.72;2.42;;;28.90;84.50;;;;;;10141439;29;20088;-87
2022/06/29 13:21:21;;;;;;;4.38;2.72;;;29.60;86.10;;;;;;9897706;29;20060;-92
2022/06/29 13:26:32;;;;;;;5.63;2.45;;;29.90;82.80;;;;;;9962357;29;20050;-92
2022/06/29 13:31:36;;;;;;;2.60;2.40;;;29.70;82.70;;;;;;10020913;29;20051;-86
2022/06/29 13:36:42;;;;;;;5.35;2.13;;;29.10;81.00;;;;;;10137454;29;20099;-86
2022/06/29 13:41:43;;;;;;;;;;;29.80;82.30;;;;;;10156690;29;20052;-87
2022/06/29 13:46:46;;;;;;;7.10;2.30;;;29.70;81.10;;;;;;10146211;29;20763;-86
2022/06/29 13:52:12;;;;;;;2.42;2.10;;;30.20;80.00;;;;;;9994802;29;20056;-92
2022/06/29 13:57:43;;;;;;;3.38;2.47;;;30.00;78.00;;;;;;9736751;29;20050;-93
2022/06/29 14:03:31;;;;;;;7.05;2.10;;;30.10;78.20;;;;;;9691387;29;20109;-93
2022/06/29 14:08:55;;;;;;;6.47;2.40;;;29.40;78.60;;;;;;9865608;29;20053;-93
2022/06/29 14:14:29;;;;;;;3.78;2.10;;;29.40;78.80;;;;;;9855667;29;20053;-93
2022/06/29 14:19:32;;;;;;;5.80;2.20;;;30.00;81.70;;;;;;10026032;29;20069;-93
2022/06/29 14:24:50;;;;;;;2.00;1.73;;;30.30;81.80;;;;;;9757626;29;20401;-93
2022/06/29 14:29:57;;;;;;;2.22;1.88;;;29.90;78.60;;;;;;9942434;29;20056;-90
2022/06/29 14:34:59;;;;;;;2.22;1.70;;;30.10;77.60;;;;;;10141555;29;20055;-86
2022/06/29 14:40:01;;;;;;;3.75;2.45;;;30.60;77.10;;;;;;10108325;29;20060;-87
2022/06/29 14:45:04;;;;;;;5.05;2.45;;;30.00;78.00;;;;;;10108841;29;20055;-88
2022/06/29 14:50:06;;;;;;;9.13;2.65;;;29.70;78.00;;;;;;9833163;29;20058;-90
2022/06/29 14:55:08;;;;;;;3.53;2.13;;;29.60;81.80;;;;;;10130892;29;20057;-89
2022/06/29 15:00:14;;;;;;;5.75;2.38;;;29.30;78.60;;;;;;10099323;29;20079;-91
2022/06/29 15:05:15;;;;;;;;;;;29.10;79.70;;;;;;10082618;29;20089;-89
2022/06/29 15:10:17;;;;;;;7.78;2.88;;;29.00;80.30;;;;;;10117530;29;19927;-88
2022/06/29 15:15:19;;;;;;;3.33;2.53;;;29.00;80.90;;;;;;10125380;29;20075;-87
2022/06/29 15:20:21;;;;;;;5.15;2.05;;;29.30;80.00;;;;;;10107679;29;20059;-86
2022/06/29 15:25:23;;;;;;;4.63;1.75;;;29.90;79.50;;;;;;10028235;29;20069;-92
2022/06/29 15:30:25;;;;;;;2.08;1.88;;;30.20;78.00;;;;;;9940519;29;20137;-93
2022/06/29 15:41:46;;;;;;;5.18;2.28;;;29.60;78.00;;;;;;9676890;29;20042;-92
2022/06/29 15:47:55;;;;;;;4.35;2.50;;;29.70;77.70;;;;;;9833982;29;20053;-94
2022/06/29 15:59:00;;;;;;;4.97;2.75;;;30.10;77.70;;;;;;9785808;29;20057;-92
2022/06/29 16:04:28;;;;;;;3.63;2.17;;;29.70;80.10;;;;;;9807243;23;20065;-59
2022/06/29 16:09:29;;;;;;;5.53;2.67;;;29.70;81.50;;;;;;10128476;29;20052;-59
2022/06/29 16:14:31;;;;;;;3.95;2.10;;;29.90;80.70;;;;;;10149607;28;20047;-59
2022/06/29 16:19:34;;;;;;;2.33;2.13;;;29.90;80.40;;;;;;10142911;29;20045;-61
2022/06/29 16:24:39;;;;;;;2.65;1.98;;;30.10;80.60;;;;;;10137415;29;20147;-60
2022/06/29 16:29:41;;;;;;;5.47;2.15;;;30.10;81.40;;;;;;10142547;29;20052;-60
2022/06/29 16:34:43;;;;;;;4.88;2.67;;;30.00;81.20;;;;;;10150489;29;20059;-60
2022/06/29 16:39:44;;;;;;;3.55;1.95;;;30.00;80.80;;;;;;10117320;29;20052;-61
2022/06/29 16:44:46;;;;;;;2.53;1.60;;;29.70;84.70;;;;;;10139480;29;20893;-60
2022/06/29 16:49:48;;;;;;;2.80;1.95;;;29.30;86.00;;;;;;10140653;29;20052;-60
2022/06/29 16:54:50;;;;;;;2.75;2.38;;;29.10;88.00;;;;;;10132970;29;20491;-60
2022/06/29 16:59:53;;;;;;;4.32;1.65;;;28.90;87.90;;;;;;10135709;29;20056;-60
2022/06/29 17:04:54;;;;;;;2.10;1.65;;;28.70;87.90;;;;;;10134626;29;20052;-62
2022/06/29 17:09:56;;;;;;;2.88;2.00;;;28.60;88.20;;;;;;10177687;29;20111;-62
2022/06/29 17:14:58;;;;;;;6.05;2.15;;;28.50;89.10;;;;;;10182739;29;20059;-62
2022/06/29 17:20:00;;;;;;;2.72;2.45;;;28.40;90.00;;;;;;10162469;29;20075;-63
2022/06/29 17:25:02;;;;;;;7.05;2.10;;;28.40;90.20;;;;;;10176985;29;20110;-62
2022/06/29 17:30:05;;;;;;;2.35;2.15;;;28.60;90.50;;;;;;10176501;29;20063;-62
2022/06/29 17:35:08;;;;;;;4.95;1.88;;;28.60;90.20;;;;;;10174832;29;20068;-62
2022/06/29 17:40:10;;;;;;;2.83;2.17;;;28.70;90.20;;;;;;10150739;29;20399;-62
2022/06/29 17:45:12;;;;;;;6.63;1.92;;;28.50;90.50;;;;;;10182969;29;20054;-62
2022/06/29 17:50:13;;;;;;;2.78;1.67;;;28.30;90.80;;;;;;10177909;28;20139;-62
2022/06/29 17:55:15;;;;;;;10.00;2.38;;;28.00;91.10;;;;;;10186962;29;20114;-62
2022/06/29 18:00:17;;;;;;;2.05;1.85;;;27.80;91.10;;;;;;10188696;29;20047;-62
2022/06/29 18:05:19;;;;;;;7.80;2.10;;;27.60;91.10;;;;;;10184263;29;20064;-63
2022/06/29 18:10:21;;;;;;;6.35;2.17;;;27.30;91.50;;;;;;10179759;29;20053;-64
2022/06/29 18:15:23;;;;;;;3.03;2.03;;;27.10;92.70;;;;;;10181903;29;20052;-64
2022/06/29 18:20:24;;;;;;;4.10;2.15;;;27.10;92.90;;;;;;10187788;29;20063;-63
2022/06/29 18:25:27;;;;;;;5.05;2.58;;;26.90;93.30;;;;;;10177885;28;20119;-63
2022/06/29 18:30:28;;;;;;;4.35;2.13;;;26.80;93.70;;;;;;10181199;29;20106;-64
2022/06/29 18:35:30;;;;;;;3.92;2.53;;;26.70;94.30;;;;;;10179007;29;20074;-64
2022/06/29 18:40:32;;;;;;;4.70;2.30;;;26.60;94.80;;;;;;10185989;29;20075;-64
2022/06/29 18:45:33;;;;;;;6.82;2.20;;;26.30;95.40;;;;;;10216641;29;20048;-65
2022/06/29 18:50:35;;;;;;;6.55;2.50;;;26.10;96.00;;;;;;10210020;29;20106;-64
2022/06/29 18:55:38;;;;;;;5.32;2.33;;;26.10;96.40;;;;;;10193235;28;20586;-64
2022/06/29 19:00:41;;;;;;;3.60;2.78;;;26.10;96.80;;;;;;10202427;29;20610;-63
2022/06/29 19:05:43;;;;;;;4.60;3.00;;;26.10;97.40;;;;;;10186393;29;20447;-63
2022/06/29 19:10:45;;;;;;;8.05;3.13;;;26.00;97.70;;;;;;10175331;29;20558;-63
2022/06/29 19:15:46;;;;;;;4.93;2.17;;;26.00;98.30;;;;;;10190946;29;20106;-63
2022/06/29 19:20:48;;;;;;;8.70;3.03;;;25.90;98.40;;;;;;10186696;28;20089;-64
2022/06/29 19:25:50;;;;;;;4.90;2.30;;;25.80;98.90;;;;;;10177206;29;20110;-63
2022/06/29 19:30:52;;;;;;;7.60;2.60;;;25.70;99.00;;;;;;10186539;29;20051;-64
2022/06/29 19:35:54;;;;;;;7.90;2.88;;;25.60;99.10;;;;;;10174104;29;20503;-64
2022/06/29 19:40:55;;;;;;;7.00;3.47;;;25.50;99.40;;;;;;10177118;29;20148;-63
2022/06/29 19:45:57;;;;;;;5.13;2.53;;;25.30;99.50;;;;;;10173327;29;20063;-64
2022/06/29 19:50:59;;;;;;;7.35;3.03;;;25.20;99.90;;;;;;10185830;29;20066;-64
2022/06/29 19:56:01;;;;;;;10.18;3.22;;;25.10;99.90;;;;;;10150275;29;20077;-64
2022/06/29 20:01:13;;;;;;;6.18;2.80;;;25.00;99.90;;;;;;10194262;29;20047;-64
2022/06/29 20:06:15;;;;;;;5.15;2.83;;;24.80;99.90;;;;;;10169213;29;20059;-65
2022/06/29 20:11:18;;;;;;;5.57;3.80;;;24.70;99.90;;;;;;10184113;29;20060;-65
2022/06/29 20:16:19;;;;;;;4.28;3.38;;;24.60;99.90;;;;;;10179815;29;20103;-65
2022/06/29 20:21:22;;;;;;;5.50;2.92;;;24.40;99.90;;;;;;10172985;28;20083;-64
2022/06/29 20:26:25;;;;;;;6.13;3.03;;;24.30;99.90;;;;;;10165593;29;20063;-65
2022/06/29 20:31:27;;;;;;;5.55;3.65;;;24.20;99.90;;;;;;10175254;29;20118;-66
2022/06/29 20:36:29;;;;;;;11.13;4.03;;;23.90;99.90;;;;;;10173806;29;20090;-65
2022/06/29 20:41:31;;;;;;;5.28;3.33;;;23.80;99.90;;;;;;10177704;29;20055;-66
2022/06/29 20:46:33;;;;;;;4.28;3.42;;;23.60;99.90;;;;;;10175744;29;20059;-65
2022/06/29 20:51:34;;;;;;;6.13;3.85;;;23.50;99.90;;;;;;10187106;29;20487;-65
2022/06/29 20:56:37;;;;;;;10.05;3.53;;;23.40;99.90;;;;;;10182318;29;20067;-62
2022/06/29 21:01:39;;;;;;;6.07;3.63;;;23.40;99.90;;;;;;10196653;29;20115;-61
2022/06/29 21:06:52;;;;;;;4.00;3.33;;;23.30;99.90;;;;;;10186016;29;20059;-61
2022/06/29 21:11:53;;;;;;;9.02;3.67;;;23.20;99.90;;;;;;10183392;29;20051;-62
2022/06/29 21:16:55;;;;;;;5.22;3.80;;;23.20;99.90;;;;;;10200773;29;20140;-62
2022/06/29 21:21:57;;;;;;;7.75;3.85;;;23.00;99.90;;;;;;10185528;29;20083;-63
2022/06/29 21:26:59;;;;;;;7.13;3.90;;;22.90;99.90;;;;;;10201935;29;20058;-61
2022/06/29 21:32:01;;;;;;;4.45;3.33;;;22.80;99.90;;;;;;10199963;29;20064;-61
2022/06/29 21:37:03;;;;;;;7.30;4.20;;;22.80;99.90;;;;;;10204866;29;20318;-62
2022/06/29 21:42:04;;;;;;;9.15;3.90;;;22.70;99.90;;;;;;10190244;29;20055;-61
2022/06/29 21:47:07;;;;;;;8.43;3.97;;;22.60;99.90;;;;;;10191068;29;20064;-62
2022/06/29 21:52:09;;;;;;;5.43;3.25;;;22.50;99.90;;;;;;10180248;29;20103;-61
2022/06/29 21:57:11;;;;;;;7.75;4.45;;;22.50;99.90;;;;;;10187612;29;20088;-63
2022/06/29 22:02:13;;;;;;;5.80;4.57;;;22.40;99.90;;;;;;10186882;29;20284;-62
2022/06/29 22:07:14;;;;;;;7.93;4.28;;;22.40;99.90;;;;;;10192151;29;20055;-62
2022/06/29 22:12:16;;;;;;;7.47;4.15;;;22.30;99.90;;;;;;10191561;28;20052;-61
2022/06/29 22:17:18;;;;;;;6.18;4.65;;;22.30;99.90;;;;;;10197926;28;20123;-63
2022/06/29 22:22:20;;;;;;;6.68;4.10;;;22.30;99.90;;;;;;10189064;29;20526;-62
2022/06/29 22:27:22;;;;;;;8.32;4.13;;;22.30;99.90;;;;;;10193824;29;20056;-62
2022/06/29 22:32:23;;;;;;;5.30;3.75;;;22.30;99.90;;;;;;10200318;29;20126;-62
2022/06/29 22:37:25;;;;;;;8.05;4.07;;;22.20;99.90;;;;;;10185206;29;20055;-63
2022/06/29 22:42:27;;;;;;;5.07;3.90;;;22.10;99.90;;;;;;10201316;29;20169;-63
2022/06/29 22:47:28;;;;;;;7.10;3.38;;;22.10;99.90;;;;;;10188845;29;20051;-63
2022/06/29 22:52:30;;;;;;;5.05;3.47;;;22.10;99.90;;;;;;10180443;29;20452;-64
2022/06/29 23:35:23;;;;;;;5.93;3.15;;;21.70;99.90;;;;;;10147764;28;20056;-67
2022/06/29 23:40:25;;;;;;;7.18;3.72;;;21.60;99.90;;;;;;10145586;28;20088;-66
2022/06/29 23:45:26;;;;;;;5.82;3.50;;;21.50;99.90;;;;;;10145262;29;20119;-61
2022/06/29 23:50:28;;;;;;;5.32;3.22;;;21.50;99.90;;;;;;10144818;29;20146;-62
2022/06/29 23:55:30;;;;;;;6.10;4.10;;;21.30;99.90;;;;;;10152565;28;20416;-61
